sensor_id;sensor_type;location;lat;lon;timestamp;P1;durP1;ratioP1;P2;durP2;ratioP2
56893;SDS011;43392;50.078;13.704;2022-12-10T00:01:40;68.90;;;35.50;;
56893;SDS011;43392;50.078;13.704;2022-12-10T00:04:08;66.80;;;34.97;;
56893;SDS011;43392;50.078;13.704;2022-12-10T00:06:36;82.95;;;38.15;;
56893;SDS011;43392;50.078;13.704;2022-12-10T00:09:05;79.10;;;37.72;;
56893;SDS011;43392;50.078;13.704;2022-12-10T00:11:33;69.28;;;33.90;;
56893;SDS011;43392;50.078;13.704;2022-12-10T00:14:00;64.53;;;32.63;;
56893;SDS011;43392;50.078;13.704;2022-12-10T00:16:27;64.10;;;34.75;;
56893;SDS011;43392;50.078;13.704;2022-12-10T00:18:55;81.85;;;40.60;;
56893;SDS011;43392;50.078;13.704;2022-12-10T00:21:23;91.30;;;41.65;;
56893;SDS011;43392;50.078;13.704;2022-12-10T00:23:51;75.88;;;38.45;;
56893;SDS011;43392;50.078;13.704;2022-12-10T00:26:20;69.38;;;35.78;;
56893;SDS011;43392;50.078;13.704;2022-12-10T00:28:48;64.65;;;35.80;;
56893;SDS011;43392;50.078;13.704;2022-12-10T00:31:17;63.22;;;33.65;;
56893;SDS011;43392;50.078;13.704;2022-12-10T00:33:45;77.00;;;38.47;;
56893;SDS011;43392;50.078;13.704;2022-12-10T00:36:13;78.53;;;36.55;;
56893;SDS011;43392;50.078;13.704;2022-12-10T00:38:41;62.10;;;34.10;;
56893;SDS011;43392;50.078;13.704;2022-12-10T00:41:08;59.97;;;33.50;;
56893;SDS011;43392;50.078;13.704;2022-12-10T00:43:37;69.90;;;36.22;;
56893;SDS011;43392;50.078;13.704;2022-12-10T00:46:04;95.13;;;44.38;;
56893;SDS011;43392;50.078;13.704;2022-12-10T00:48:31;77.63;;;37.38;;
56893;SDS011;43392;50.078;13.704;2022-12-10T00:50:59;77.15;;;38.25;;
56893;SDS011;43392;50.078;13.704;2022-12-10T00:53:27;77.30;;;35.83;;
56893;SDS011;43392;50.078;13.704;2022-12-10T00:55:54;64.95;;;34.30;;
56893;SDS011;43392;50.078;13.704;2022-12-10T00:58:22;62.97;;;34.85;;
56893;SDS011;43392;50.078;13.704;2022-12-10T01:00:50;70.28;;;36.28;;
56893;SDS011;43392;50.078;13.704;2022-12-10T01:03:16;75.30;;;36.88;;
56893;SDS011;43392;50.078;13.704;2022-12-10T01:05:43;89.43;;;42.47;;
56893;SDS011;43392;50.078;13.704;2022-12-10T01:08:10;77.97;;;38.72;;
56893;SDS011;43392;50.078;13.704;2022-12-10T01:10:36;68.65;;;35.42;;
56893;SDS011;43392;50.078;13.704;2022-12-10T01:13:03;73.47;;;35.70;;
56893;SDS011;43392;50.078;13.704;2022-12-10T01:15:30;71.93;;;35.30;;
56893;SDS011;43392;50.078;13.704;2022-12-10T01:17:58;85.57;;;40.42;;
56893;SDS011;43392;50.078;13.704;2022-12-10T01:20:24;67.28;;;33.38;;
56893;SDS011;43392;50.078;13.704;2022-12-10T01:22:51;72.90;;;35.72;;
56893;SDS011;43392;50.078;13.704;2022-12-10T01:25:17;81.72;;;36.28;;
56893;SDS011;43392;50.078;13.704;2022-12-10T01:27:44;71.28;;;36.75;;
56893;SDS011;43392;50.078;13.704;2022-12-10T01:30:11;71.63;;;34.33;;
56893;SDS011;43392;50.078;13.704;2022-12-10T01:32:38;72.75;;;37.33;;
56893;SDS011;43392;50.078;13.704;2022-12-10T01:35:06;66.47;;;33.53;;
56893;SDS011;43392;50.078;13.704;2022-12-10T01:37:33;72.03;;;37.03;;
56893;SDS011;43392;50.078;13.704;2022-12-10T01:39:59;70.68;;;37.03;;
56893;SDS011;43392;50.078;13.704;2022-12-10T01:42:26;68.28;;;34.85;;
56893;SDS011;43392;50.078;13.704;2022-12-10T01:44:57;71.07;;;33.72;;
56893;SDS011;43392;50.078;13.704;2022-12-10T01:47:26;66.88;;;34.28;;
56893;SDS011;43392;50.078;13.704;2022-12-10T01:49:52;64.90;;;33.47;;
56893;SDS011;43392;50.078;13.704;2022-12-10T01:52:20;62.70;;;32.08;;
56893;SDS011;43392;50.078;13.704;2022-12-10T01:54:47;61.33;;;32.03;;
56893;SDS011;43392;50.078;13.704;2022-12-10T01:57:15;67.57;;;31.00;;
56893;SDS011;43392;50.078;13.704;2022-12-10T01:59:43;58.58;;;30.98;;
56893;SDS011;43392;50.078;13.704;2022-12-10T02:02:13;64.43;;;32.00;;
56893;SDS011;43392;50.078;13.704;2022-12-10T02:04:47;61.22;;;32.65;;
56893;SDS011;43392;50.078;13.704;2022-12-10T02:07:24;56.33;;;29.23;;
56893;SDS011;43392;50.078;13.704;2022-12-10T02:10:01;56.22;;;29.73;;
56893;SDS011;43392;50.078;13.704;2022-12-10T02:12:34;58.30;;;30.95;;
56893;SDS011;43392;50.078;13.704;2022-12-10T02:15:07;56.85;;;30.05;;
56893;SDS011;43392;50.078;13.704;2022-12-10T02:17:39;60.78;;;30.88;;
56893;SDS011;43392;50.078;13.704;2022-12-10T02:20:10;58.55;;;30.88;;
56893;SDS011;43392;50.078;13.704;2022-12-10T02:22:42;57.17;;;32.00;;
56893;SDS011;43392;50.078;13.704;2022-12-10T02:25:13;59.60;;;32.42;;
56893;SDS011;43392;50.078;13.704;2022-12-10T02:27:44;62.33;;;32.40;;
56893;SDS011;43392;50.078;13.704;2022-12-10T02:30:19;64.53;;;34.17;;
56893;SDS011;43392;50.078;13.704;2022-12-10T02:32:46;61.50;;;33.30;;
56893;SDS011;43392;50.078;13.704;2022-12-10T02:35:16;61.60;;;33.10;;
56893;SDS011;43392;50.078;13.704;2022-12-10T02:37:48;58.83;;;31.27;;
56893;SDS011;43392;50.078;13.704;2022-12-10T02:40:18;53.85;;;29.52;;
56893;SDS011;43392;50.078;13.704;2022-12-10T02:42:50;60.67;;;32.40;;
56893;SDS011;43392;50.078;13.704;2022-12-10T02:45:19;65.90;;;33.67;;
56893;SDS011;43392;50.078;13.704;2022-12-10T02:47:48;64.80;;;33.63;;
56893;SDS011;43392;50.078;13.704;2022-12-10T02:50:16;58.95;;;31.98;;
56893;SDS011;43392;50.078;13.704;2022-12-10T02:52:45;60.28;;;31.17;;
56893;SDS011;43392;50.078;13.704;2022-12-10T02:55:12;56.72;;;30.33;;
56893;SDS011;43392;50.078;13.704;2022-12-10T02:57:41;55.65;;;30.15;;
56893;SDS011;43392;50.078;13.704;2022-12-10T03:00:16;56.75;;;29.67;;
56893;SDS011;43392;50.078;13.704;2022-12-10T03:02:49;60.05;;;30.45;;
56893;SDS011;43392;50.078;13.704;2022-12-10T03:05:33;56.38;;;29.50;;
56893;SDS011;43392;50.078;13.704;2022-12-10T03:08:08;57.00;;;29.98;;
56893;SDS011;43392;50.078;13.704;2022-12-10T03:10:41;58.47;;;31.17;;
56893;SDS011;43392;50.078;13.704;2022-12-10T03:13:15;58.17;;;30.10;;
56893;SDS011;43392;50.078;13.704;2022-12-10T03:15:48;58.47;;;29.30;;
56893;SDS011;43392;50.078;13.704;2022-12-10T03:18:17;58.45;;;30.90;;
56893;SDS011;43392;50.078;13.704;2022-12-10T03:20:48;57.95;;;30.55;;
56893;SDS011;43392;50.078;13.704;2022-12-10T03:23:19;68.68;;;35.13;;
56893;SDS011;43392;50.078;13.704;2022-12-10T03:25:46;56.17;;;30.10;;
56893;SDS011;43392;50.078;13.704;2022-12-10T03:28:15;54.67;;;29.88;;
56893;SDS011;43392;50.078;13.704;2022-12-10T03:30:45;55.92;;;29.70;;
56893;SDS011;43392;50.078;13.704;2022-12-10T03:33:15;52.78;;;29.33;;
56893;SDS011;43392;50.078;13.704;2022-12-10T03:35:43;55.83;;;30.55;;
56893;SDS011;43392;50.078;13.704;2022-12-10T03:38:10;55.50;;;30.17;;
56893;SDS011;43392;50.078;13.704;2022-12-10T03:40:38;54.30;;;28.23;;
56893;SDS011;43392;50.078;13.704;2022-12-10T03:43:05;55.85;;;29.92;;
56893;SDS011;43392;50.078;13.704;2022-12-10T03:45:32;51.95;;;29.30;;
56893;SDS011;43392;50.078;13.704;2022-12-10T03:48:00;55.80;;;30.08;;
56893;SDS011;43392;50.078;13.704;2022-12-10T03:50:26;56.80;;;30.88;;
56893;SDS011;43392;50.078;13.704;2022-12-10T03:52:53;57.67;;;30.50;;
56893;SDS011;43392;50.078;13.704;2022-12-10T03:55:19;63.40;;;33.67;;
56893;SDS011;43392;50.078;13.704;2022-12-10T03:57:46;63.85;;;33.17;;
56893;SDS011;43392;50.078;13.704;2022-12-10T04:00:13;59.95;;;30.48;;
56893;SDS011;43392;50.078;13.704;2022-12-10T04:02:40;65.40;;;33.80;;
56893;SDS011;43392;50.078;13.704;2022-12-10T04:05:08;51.40;;;28.42;;
56893;SDS011;43392;50.078;13.704;2022-12-10T04:07:35;56.45;;;28.45;;
56893;SDS011;43392;50.078;13.704;2022-12-10T04:10:02;50.75;;;29.23;;
56893;SDS011;43392;50.078;13.704;2022-12-10T04:12:29;56.35;;;29.63;;
56893;SDS011;43392;50.078;13.704;2022-12-10T04:14:55;52.85;;;29.67;;
56893;SDS011;43392;50.078;13.704;2022-12-10T04:17:40;56.38;;;30.80;;
56893;SDS011;43392;50.078;13.704;2022-12-10T04:20:06;54.03;;;31.33;;
56893;SDS011;43392;50.078;13.704;2022-12-10T04:22:55;51.80;;;28.40;;
56893;SDS011;43392;50.078;13.704;2022-12-10T04:25:39;49.55;;;28.40;;
56893;SDS011;43392;50.078;13.704;2022-12-10T04:28:23;58.17;;;29.75;;
56893;SDS011;43392;50.078;13.704;2022-12-10T04:30:50;56.20;;;29.00;;
56893;SDS011;43392;50.078;13.704;2022-12-10T04:33:16;54.45;;;29.05;;
56893;SDS011;43392;50.078;13.704;2022-12-10T04:35:44;53.10;;;29.35;;
56893;SDS011;43392;50.078;13.704;2022-12-10T04:38:11;55.53;;;29.95;;
56893;SDS011;43392;50.078;13.704;2022-12-10T04:40:37;56.58;;;29.20;;
56893;SDS011;43392;50.078;13.704;2022-12-10T04:43:04;58.45;;;30.02;;
56893;SDS011;43392;50.078;13.704;2022-12-10T04:45:33;55.25;;;27.58;;
56893;SDS011;43392;50.078;13.704;2022-12-10T04:48:00;54.60;;;28.20;;
56893;SDS011;43392;50.078;13.704;2022-12-10T04:50:26;55.83;;;28.35;;
56893;SDS011;43392;50.078;13.704;2022-12-10T04:52:54;54.05;;;28.83;;
56893;SDS011;43392;50.078;13.704;2022-12-10T04:55:21;57.35;;;29.55;;
56893;SDS011;43392;50.078;13.704;2022-12-10T04:57:47;55.30;;;29.80;;
56893;SDS011;43392;50.078;13.704;2022-12-10T05:00:14;53.38;;;29.35;;
56893;SDS011;43392;50.078;13.704;2022-12-10T05:02:41;53.45;;;28.77;;
56893;SDS011;43392;50.078;13.704;2022-12-10T05:05:08;62.15;;;29.92;;
56893;SDS011;43392;50.078;13.704;2022-12-10T05:07:34;54.58;;;30.20;;
56893;SDS011;43392;50.078;13.704;2022-12-10T05:10:02;53.45;;;28.20;;
56893;SDS011;43392;50.078;13.704;2022-12-10T05:12:29;58.10;;;28.40;;
56893;SDS011;43392;50.078;13.704;2022-12-10T05:14:56;55.65;;;28.15;;
56893;SDS011;43392;50.078;13.704;2022-12-10T05:17:22;53.72;;;29.20;;
56893;SDS011;43392;50.078;13.704;2022-12-10T05:19:49;52.13;;;28.85;;
56893;SDS011;43392;50.078;13.704;2022-12-10T05:22:15;56.28;;;30.15;;
56893;SDS011;43392;50.078;13.704;2022-12-10T05:24:59;55.60;;;29.02;;
56893;SDS011;43392;50.078;13.704;2022-12-10T05:27:31;55.55;;;29.48;;
56893;SDS011;43392;50.078;13.704;2022-12-10T05:29:58;55.78;;;29.05;;
56893;SDS011;43392;50.078;13.704;2022-12-10T05:32:25;56.47;;;30.40;;
56893;SDS011;43392;50.078;13.704;2022-12-10T05:34:51;52.92;;;28.42;;
56893;SDS011;43392;50.078;13.704;2022-12-10T05:37:18;53.72;;;28.63;;
56893;SDS011;43392;50.078;13.704;2022-12-10T05:39:45;50.58;;;28.58;;
56893;SDS011;43392;50.078;13.704;2022-12-10T05:42:11;54.58;;;29.52;;
56893;SDS011;43392;50.078;13.704;2022-12-10T05:44:39;54.53;;;30.33;;
56893;SDS011;43392;50.078;13.704;2022-12-10T05:47:06;55.67;;;30.15;;
56893;SDS011;43392;50.078;13.704;2022-12-10T05:49:32;58.47;;;30.50;;
56893;SDS011;43392;50.078;13.704;2022-12-10T05:51:59;58.67;;;31.52;;
56893;SDS011;43392;50.078;13.704;2022-12-10T05:54:25;58.67;;;31.35;;
56893;SDS011;43392;50.078;13.704;2022-12-10T05:56:52;56.42;;;30.48;;
56893;SDS011;43392;50.078;13.704;2022-12-10T05:59:19;59.50;;;30.95;;
56893;SDS011;43392;50.078;13.704;2022-12-10T06:01:47;60.75;;;31.23;;
56893;SDS011;43392;50.078;13.704;2022-12-10T06:04:13;55.80;;;30.80;;
56893;SDS011;43392;50.078;13.704;2022-12-10T06:06:40;61.05;;;31.10;;
56893;SDS011;43392;50.078;13.704;2022-12-10T06:09:07;57.78;;;30.13;;
56893;SDS011;43392;50.078;13.704;2022-12-10T06:11:37;60.22;;;31.85;;
56893;SDS011;43392;50.078;13.704;2022-12-10T06:14:04;61.63;;;32.05;;
56893;SDS011;43392;50.078;13.704;2022-12-10T06:16:31;57.47;;;30.05;;
56893;SDS011;43392;50.078;13.704;2022-12-10T06:18:59;53.28;;;30.58;;
56893;SDS011;43392;50.078;13.704;2022-12-10T06:21:25;57.50;;;30.33;;
56893;SDS011;43392;50.078;13.704;2022-12-10T06:23:52;59.47;;;30.60;;
56893;SDS011;43392;50.078;13.704;2022-12-10T06:26:19;54.97;;;29.33;;
56893;SDS011;43392;50.078;13.704;2022-12-10T06:28:47;61.70;;;31.02;;
56893;SDS011;43392;50.078;13.704;2022-12-10T06:31:15;53.45;;;29.65;;
56893;SDS011;43392;50.078;13.704;2022-12-10T06:33:42;60.42;;;30.13;;
56893;SDS011;43392;50.078;13.704;2022-12-10T06:36:10;53.75;;;28.75;;
56893;SDS011;43392;50.078;13.704;2022-12-10T06:38:38;58.08;;;28.73;;
56893;SDS011;43392;50.078;13.704;2022-12-10T06:41:05;59.40;;;31.30;;
56893;SDS011;43392;50.078;13.704;2022-12-10T06:43:33;58.08;;;33.20;;
56893;SDS011;43392;50.078;13.704;2022-12-10T06:46:03;62.22;;;32.30;;
56893;SDS011;43392;50.078;13.704;2022-12-10T06:48:30;58.13;;;32.08;;
56893;SDS011;43392;50.078;13.704;2022-12-10T06:50:56;66.53;;;34.22;;
56893;SDS011;43392;50.078;13.704;2022-12-10T06:53:24;78.60;;;41.60;;
56893;SDS011;43392;50.078;13.704;2022-12-10T06:55:51;63.95;;;35.05;;
56893;SDS011;43392;50.078;13.704;2022-12-10T06:58:17;61.15;;;33.17;;
56893;SDS011;43392;50.078;13.704;2022-12-10T07:00:44;57.85;;;30.58;;
56893;SDS011;43392;50.078;13.704;2022-12-10T07:03:10;61.03;;;30.95;;
56893;SDS011;43392;50.078;13.704;2022-12-10T07:05:37;62.22;;;30.50;;
56893;SDS011;43392;50.078;13.704;2022-12-10T07:08:04;58.25;;;28.95;;
56893;SDS011;43392;50.078;13.704;2022-12-10T07:10:32;56.78;;;28.05;;
56893;SDS011;43392;50.078;13.704;2022-12-10T07:12:58;53.20;;;27.80;;
56893;SDS011;43392;50.078;13.704;2022-12-10T07:15:25;57.75;;;29.90;;
56893;SDS011;43392;50.078;13.704;2022-12-10T07:17:53;62.47;;;33.00;;
56893;SDS011;43392;50.078;13.704;2022-12-10T07:20:19;67.63;;;33.70;;
56893;SDS011;43392;50.078;13.704;2022-12-10T07:22:46;68.78;;;35.55;;
56893;SDS011;43392;50.078;13.704;2022-12-10T07:25:13;69.32;;;35.67;;
56893;SDS011;43392;50.078;13.704;2022-12-10T07:27:40;70.25;;;37.03;;
56893;SDS011;43392;50.078;13.704;2022-12-10T07:30:08;84.63;;;40.70;;
56893;SDS011;43392;50.078;13.704;2022-12-10T07:32:35;86.53;;;42.60;;
56893;SDS011;43392;50.078;13.704;2022-12-10T07:35:02;89.90;;;42.47;;
56893;SDS011;43392;50.078;13.704;2022-12-10T07:37:28;66.05;;;32.03;;
56893;SDS011;43392;50.078;13.704;2022-12-10T07:39:55;68.30;;;32.15;;
56893;SDS011;43392;50.078;13.704;2022-12-10T07:42:21;67.35;;;30.33;;
56893;SDS011;43392;50.078;13.704;2022-12-10T07:44:49;60.65;;;30.63;;
56893;SDS011;43392;50.078;13.704;2022-12-10T07:47:16;59.75;;;28.95;;
56893;SDS011;43392;50.078;13.704;2022-12-10T07:49:42;58.05;;;29.92;;
56893;SDS011;43392;50.078;13.704;2022-12-10T07:52:09;60.65;;;28.98;;
56893;SDS011;43392;50.078;13.704;2022-12-10T07:54:35;62.95;;;31.42;;
56893;SDS011;43392;50.078;13.704;2022-12-10T07:57:03;61.28;;;28.45;;
56893;SDS011;43392;50.078;13.704;2022-12-10T07:59:30;58.85;;;28.42;;
56893;SDS011;43392;50.078;13.704;2022-12-10T08:01:58;59.97;;;29.00;;
56893;SDS011;43392;50.078;13.704;2022-12-10T08:04:27;59.75;;;29.52;;
56893;SDS011;43392;50.078;13.704;2022-12-10T08:06:54;55.53;;;27.25;;
56893;SDS011;43392;50.078;13.704;2022-12-10T08:09:21;58.33;;;29.15;;
56893;SDS011;43392;50.078;13.704;2022-12-10T08:11:48;56.72;;;28.65;;
56893;SDS011;43392;50.078;13.704;2022-12-10T08:14:14;56.53;;;27.75;;
56893;SDS011;43392;50.078;13.704;2022-12-10T08:16:41;51.35;;;26.52;;
56893;SDS011;43392;50.078;13.704;2022-12-10T08:19:09;50.90;;;27.27;;
56893;SDS011;43392;50.078;13.704;2022-12-10T08:21:35;53.85;;;27.25;;
56893;SDS011;43392;50.078;13.704;2022-12-10T08:24:02;55.90;;;28.02;;
56893;SDS011;43392;50.078;13.704;2022-12-10T08:26:32;57.15;;;28.10;;
56893;SDS011;43392;50.078;13.704;2022-12-10T08:28:59;57.65;;;30.98;;
56893;SDS011;43392;50.078;13.704;2022-12-10T08:31:26;60.28;;;31.88;;
56893;SDS011;43392;50.078;13.704;2022-12-10T08:33:54;61.47;;;30.65;;
56893;SDS011;43392;50.078;13.704;2022-12-10T08:36:22;59.20;;;30.33;;
56893;SDS011;43392;50.078;13.704;2022-12-10T08:38:48;60.58;;;30.05;;
56893;SDS011;43392;50.078;13.704;2022-12-10T08:41:15;62.15;;;32.33;;
56893;SDS011;43392;50.078;13.704;2022-12-10T08:43:44;59.63;;;31.25;;
56893;SDS011;43392;50.078;13.704;2022-12-10T08:46:12;62.75;;;31.05;;
56893;SDS011;43392;50.078;13.704;2022-12-10T08:48:39;66.25;;;30.70;;
56893;SDS011;43392;50.078;13.704;2022-12-10T08:51:07;56.13;;;28.77;;
56893;SDS011;43392;50.078;13.704;2022-12-10T08:53:36;58.47;;;28.95;;
56893;SDS011;43392;50.078;13.704;2022-12-10T08:56:02;61.65;;;29.88;;
56893;SDS011;43392;50.078;13.704;2022-12-10T08:58:29;63.72;;;30.65;;
56893;SDS011;43392;50.078;13.704;2022-12-10T09:00:56;68.63;;;32.10;;
56893;SDS011;43392;50.078;13.704;2022-12-10T09:03:23;60.17;;;29.50;;
56893;SDS011;43392;50.078;13.704;2022-12-10T09:05:50;60.83;;;29.92;;
56893;SDS011;43392;50.078;13.704;2022-12-10T09:08:17;54.60;;;29.08;;
56893;SDS011;43392;50.078;13.704;2022-12-10T09:10:45;64.50;;;32.42;;
56893;SDS011;43392;50.078;13.704;2022-12-10T09:13:11;63.22;;;33.00;;
56893;SDS011;43392;50.078;13.704;2022-12-10T09:15:38;65.90;;;33.25;;
56893;SDS011;43392;50.078;13.704;2022-12-10T09:18:05;62.33;;;30.80;;
56893;SDS011;43392;50.078;13.704;2022-12-10T09:20:31;62.67;;;31.85;;
56893;SDS011;43392;50.078;13.704;2022-12-10T09:22:58;66.32;;;32.60;;
56893;SDS011;43392;50.078;13.704;2022-12-10T09:25:24;58.58;;;30.40;;
56893;SDS011;43392;50.078;13.704;2022-12-10T09:27:52;63.53;;;29.75;;
56893;SDS011;43392;50.078;13.704;2022-12-10T09:30:19;61.97;;;29.92;;
56893;SDS011;43392;50.078;13.704;2022-12-10T09:32:45;59.88;;;28.92;;
56893;SDS011;43392;50.078;13.704;2022-12-10T09:35:12;62.83;;;31.58;;
56893;SDS011;43392;50.078;13.704;2022-12-10T09:37:38;58.08;;;30.48;;
56893;SDS011;43392;50.078;13.704;2022-12-10T09:40:05;65.32;;;30.80;;
56893;SDS011;43392;50.078;13.704;2022-12-10T09:42:34;62.83;;;30.02;;
56893;SDS011;43392;50.078;13.704;2022-12-10T09:45:14;71.47;;;32.20;;
56893;SDS011;43392;50.078;13.704;2022-12-10T09:47:46;60.53;;;29.23;;
56893;SDS011;43392;50.078;13.704;2022-12-10T09:50:23;70.90;;;29.17;;
56893;SDS011;43392;50.078;13.704;2022-12-10T09:52:56;57.95;;;28.58;;
56893;SDS011;43392;50.078;13.704;2022-12-10T09:55:28;59.92;;;27.33;;
56893;SDS011;43392;50.078;13.704;2022-12-10T09:57:59;53.35;;;26.05;;
56893;SDS011;43392;50.078;13.704;2022-12-10T10:00:33;56.58;;;27.80;;
56893;SDS011;43392;50.078;13.704;2022-12-10T10:03:04;56.08;;;27.10;;
56893;SDS011;43392;50.078;13.704;2022-12-10T10:05:33;60.65;;;27.58;;
56893;SDS011;43392;50.078;13.704;2022-12-10T10:08:03;62.80;;;29.35;;
56893;SDS011;43392;50.078;13.704;2022-12-10T10:10:32;58.58;;;27.80;;
56893;SDS011;43392;50.078;13.704;2022-12-10T10:13:01;61.78;;;28.50;;
56893;SDS011;43392;50.078;13.704;2022-12-10T10:15:39;60.33;;;28.13;;
56893;SDS011;43392;50.078;13.704;2022-12-10T10:20:39;56.13;;;26.08;;
56893;SDS011;43392;50.078;13.704;2022-12-10T10:23:06;57.35;;;27.13;;
56893;SDS011;43392;50.078;13.704;2022-12-10T10:25:34;58.30;;;27.65;;
56893;SDS011;43392;50.078;13.704;2022-12-10T10:28:01;55.58;;;26.15;;
56893;SDS011;43392;50.078;13.704;2022-12-10T10:30:28;58.70;;;26.40;;
56893;SDS011;43392;50.078;13.704;2022-12-10T10:32:56;52.85;;;26.55;;
56893;SDS011;43392;50.078;13.704;2022-12-10T10:35:30;53.72;;;26.00;;
56893;SDS011;43392;50.078;13.704;2022-12-10T10:37:59;55.65;;;25.73;;
56893;SDS011;43392;50.078;13.704;2022-12-10T10:40:28;53.70;;;25.45;;
56893;SDS011;43392;50.078;13.704;2022-12-10T10:42:58;60.00;;;26.73;;
56893;SDS011;43392;50.078;13.704;2022-12-10T10:45:36;60.80;;;27.02;;
56893;SDS011;43392;50.078;13.704;2022-12-10T10:48:08;52.33;;;26.90;;
56893;SDS011;43392;50.078;13.704;2022-12-10T10:50:39;54.78;;;25.75;;
56893;SDS011;43392;50.078;13.704;2022-12-10T10:53:24;59.17;;;27.15;;
56893;SDS011;43392;50.078;13.704;2022-12-10T10:55:57;59.53;;;27.80;;
56893;SDS011;43392;50.078;13.704;2022-12-10T10:58:27;54.30;;;25.92;;
56893;SDS011;43392;50.078;13.704;2022-12-10T11:00:57;53.95;;;26.75;;
56893;SDS011;43392;50.078;13.704;2022-12-10T11:03:27;55.50;;;27.15;;
56893;SDS011;43392;50.078;13.704;2022-12-10T11:05:56;62.58;;;28.77;;
56893;SDS011;43392;50.078;13.704;2022-12-10T11:08:24;66.40;;;32.92;;
56893;SDS011;43392;50.078;13.704;2022-12-10T11:10:55;62.67;;;30.42;;
56893;SDS011;43392;50.078;13.704;2022-12-10T11:13:27;67.03;;;33.45;;
56893;SDS011;43392;50.078;13.704;2022-12-10T11:15:55;63.67;;;31.63;;
56893;SDS011;43392;50.078;13.704;2022-12-10T11:18:26;58.22;;;28.55;;
56893;SDS011;43392;50.078;13.704;2022-12-10T11:20:58;60.60;;;26.88;;
56893;SDS011;43392;50.078;13.704;2022-12-10T11:23:27;58.65;;;28.80;;
56893;SDS011;43392;50.078;13.704;2022-12-10T11:25:57;59.42;;;27.70;;
56893;SDS011;43392;50.078;13.704;2022-12-10T11:28:34;61.85;;;28.10;;
56893;SDS011;43392;50.078;13.704;2022-12-10T11:31:20;56.08;;;27.73;;
56893;SDS011;43392;50.078;13.704;2022-12-10T11:34:01;61.53;;;28.77;;
56893;SDS011;43392;50.078;13.704;2022-12-10T11:36:36;62.10;;;27.08;;
56893;SDS011;43392;50.078;13.704;2022-12-10T11:39:11;59.70;;;26.95;;
56893;SDS011;43392;50.078;13.704;2022-12-10T11:41:49;58.85;;;27.40;;
56893;SDS011;43392;50.078;13.704;2022-12-10T11:44:23;57.55;;;25.92;;
56893;SDS011;43392;50.078;13.704;2022-12-10T11:47:00;53.83;;;26.88;;
56893;SDS011;43392;50.078;13.704;2022-12-10T11:49:40;53.78;;;25.95;;
56893;SDS011;43392;50.078;13.704;2022-12-10T11:52:16;54.85;;;24.33;;
56893;SDS011;43392;50.078;13.704;2022-12-10T11:54:58;50.78;;;23.90;;
56893;SDS011;43392;50.078;13.704;2022-12-10T11:57:33;49.53;;;24.67;;
56893;SDS011;43392;50.078;13.704;2022-12-10T12:00:14;55.00;;;23.88;;
56893;SDS011;43392;50.078;13.704;2022-12-10T12:02:52;53.65;;;25.40;;
56893;SDS011;43392;50.078;13.704;2022-12-10T12:05:36;49.50;;;24.42;;
56893;SDS011;43392;50.078;13.704;2022-12-10T12:08:12;49.10;;;23.20;;
56893;SDS011;43392;50.078;13.704;2022-12-10T12:10:48;55.47;;;24.20;;
56893;SDS011;43392;50.078;13.704;2022-12-10T12:13:25;51.55;;;24.33;;
56893;SDS011;43392;50.078;13.704;2022-12-10T12:15:57;48.65;;;23.17;;
56893;SDS011;43392;50.078;13.704;2022-12-10T12:18:38;51.97;;;23.65;;
56893;SDS011;43392;50.078;13.704;2022-12-10T12:21:14;45.95;;;22.33;;
56893;SDS011;43392;50.078;13.704;2022-12-10T12:23:43;48.67;;;21.80;;
56893;SDS011;43392;50.078;13.704;2022-12-10T12:26:17;38.55;;;18.48;;
56893;SDS011;43392;50.078;13.704;2022-12-10T12:28:51;42.75;;;19.98;;
56893;SDS011;43392;50.078;13.704;2022-12-10T12:31:22;41.20;;;19.70;;
56893;SDS011;43392;50.078;13.704;2022-12-10T12:33:58;42.42;;;19.75;;
56893;SDS011;43392;50.078;13.704;2022-12-10T12:36:29;40.10;;;20.27;;
56893;SDS011;43392;50.078;13.704;2022-12-10T12:39:00;41.70;;;20.92;;
56893;SDS011;43392;50.078;13.704;2022-12-10T12:41:32;44.20;;;21.55;;
56893;SDS011;43392;50.078;13.704;2022-12-10T12:44:08;46.67;;;21.67;;
56893;SDS011;43392;50.078;13.704;2022-12-10T12:46:41;44.78;;;21.25;;
56893;SDS011;43392;50.078;13.704;2022-12-10T12:49:10;43.25;;;20.45;;
56893;SDS011;43392;50.078;13.704;2022-12-10T12:51:47;46.45;;;21.42;;
56893;SDS011;43392;50.078;13.704;2022-12-10T12:54:18;44.42;;;20.33;;
56893;SDS011;43392;50.078;13.704;2022-12-10T12:56:54;40.47;;;18.85;;
56893;SDS011;43392;50.078;13.704;2022-12-10T12:59:31;41.20;;;19.83;;
56893;SDS011;43392;50.078;13.704;2022-12-10T13:02:08;35.50;;;18.52;;
56893;SDS011;43392;50.078;13.704;2022-12-10T13:07:32;38.58;;;19.42;;
56893;SDS011;43392;50.078;13.704;2022-12-10T13:10:18;41.95;;;20.75;;
56893;SDS011;43392;50.078;13.704;2022-12-10T13:12:51;41.95;;;19.65;;
56893;SDS011;43392;50.078;13.704;2022-12-10T13:18:00;44.80;;;20.92;;
56893;SDS011;43392;50.078;13.704;2022-12-10T13:20:46;44.55;;;21.25;;
56893;SDS011;43392;50.078;13.704;2022-12-10T13:23:31;42.20;;;19.90;;
56893;SDS011;43392;50.078;13.704;2022-12-10T13:26:21;41.80;;;19.92;;
56893;SDS011;43392;50.078;13.704;2022-12-10T13:28:50;42.60;;;20.40;;
56893;SDS011;43392;50.078;13.704;2022-12-10T13:31:20;41.47;;;19.35;;
56893;SDS011;43392;50.078;13.704;2022-12-10T13:34:04;46.17;;;20.92;;
56893;SDS011;43392;50.078;13.704;2022-12-10T13:39:33;43.83;;;21.20;;
56893;SDS011;43392;50.078;13.704;2022-12-10T13:45:23;42.65;;;21.00;;
56893;SDS011;43392;50.078;13.704;2022-12-10T13:47:52;38.85;;;20.48;;
56893;SDS011;43392;50.078;13.704;2022-12-10T13:50:21;42.08;;;21.25;;
56893;SDS011;43392;50.078;13.704;2022-12-10T13:53:01;46.72;;;22.70;;
56893;SDS011;43392;50.078;13.704;2022-12-10T13:55:37;47.00;;;22.42;;
56893;SDS011;43392;50.078;13.704;2022-12-10T13:58:18;38.92;;;19.50;;
56893;SDS011;43392;50.078;13.704;2022-12-10T14:01:08;37.55;;;18.60;;
56893;SDS011;43392;50.078;13.704;2022-12-10T14:03:56;41.53;;;21.17;;
56893;SDS011;43392;50.078;13.704;2022-12-10T14:06:34;38.47;;;20.00;;
56893;SDS011;43392;50.078;13.704;2022-12-10T14:09:03;41.70;;;19.85;;
56893;SDS011;43392;50.078;13.704;2022-12-10T14:11:34;38.13;;;19.20;;
56893;SDS011;43392;50.078;13.704;2022-12-10T14:14:04;37.67;;;19.45;;
56893;SDS011;43392;50.078;13.704;2022-12-10T14:16:36;42.97;;;20.23;;
56893;SDS011;43392;50.078;13.704;2022-12-10T14:19:06;41.15;;;19.58;;
56893;SDS011;43392;50.078;13.704;2022-12-10T14:21:38;36.47;;;18.63;;
56893;SDS011;43392;50.078;13.704;2022-12-10T14:24:15;41.35;;;20.73;;
56893;SDS011;43392;50.078;13.704;2022-12-10T14:26:58;41.67;;;19.52;;
56893;SDS011;43392;50.078;13.704;2022-12-10T14:30:20;43.05;;;20.15;;
56893;SDS011;43392;50.078;13.704;2022-12-10T14:32:49;39.22;;;17.70;;
56893;SDS011;43392;50.078;13.704;2022-12-10T14:35:18;40.20;;;19.70;;
56893;SDS011;43392;50.078;13.704;2022-12-10T14:37:47;43.92;;;19.95;;
56893;SDS011;43392;50.078;13.704;2022-12-10T14:40:17;38.53;;;18.48;;